Airfield :
LOGIN :

Register | Disclaimer

   EN    FR    IT 

 










Legend :    VFR   Marginal VFR   IFR   Intensive IFR   Very Intensive IFR
Visi :
Ceiling :
>= 8 km
>= 3000ft
5 to 8 km
1000 to 3000 ft
1500m to 5 km
500 to 1000 ft
800 to 1500m
200 to 500 ft
< 800m
< 200 ft
Symbols :   Thunderstorms  Fog  Heavy snow  Heavy precipitations  Wind > 20 kt
SIGMETs :     Misc.  Thunderstorms  Icing  Turbulence  Mountain Waves  Volcanic Ashes






- Airport Elevation : 124 ft
- IATA code : RNS


LFRN - Rennes

CURRENT METAR :
  • 130930Z AUTO 25017KT 220V280 9999 SCT038/// BKN045/// BKN056/// ///TCU 08/04 Q0993 BECMG 27020G30KT BKN040

EXPIRED METARs :
  • 130900Z AUTO 25015KT CAVOK 08/04 Q0992 TEMPO 4000 SHRA BKN015TCU SCT020CB BECMG 27020G30KT
  • 130830Z AUTO 25016KT CAVOK 07/04 Q0991 TEMPO 4000 SHRA BKN015TCU SCT020CB BECMG 27020G30KT
  • 130800Z AUTO 25014KT 9999 SCT035/// BKN041/// BKN050/// ///TCU 07/04 Q0991 TEMPO 28025G45KT 4000 SHRA BKN015TCU SCT020CB
  • 130730Z AUTO 26013KT 9999 FEW035 BKN042 BKN048 07/04 Q0990 TEMPO 28025G45KT 4000 SHRA BKN015TCU SCT020CB
  • 130700Z AUTO 26017KT 9999 BKN039 BKN048 BKN058 07/04 Q0989 TEMPO 28025G45KT 4000 SHRA BKN015TCU SCT020CB

TAF AMD TAF LFRN
Valid from the 13 at 06:00 until the 14 at 06:00 UTC


130533Z 1306/1406 27020G30KT 9999 BKN040
TEMPO 1306/1310 28025G45KT 4000 SHRA BKN015TCU SCT020CB
TEMPO 1312/1317 5000 SHRA
BECMG 1315/1317 24010KT
TEMPO 1317/1320 4000 RA BKN006
BECMG 1318/1320 25020G35KT
TEMPO 1320/1402 4000 SHRA BKN012
TEMPO 1322/1402 27025G50KT
BECMG 1402/1404 25013KT
PROB30
TEMPO 1402/1406 5000 SHRA
ATIS : +33 2 99 67 72 50



MET'MAP, your aeronautical weather chart ! - Copyright ORBIFLY December 2007 - Disclaimer

ORBIFLY MET'MAP TEAM :

Programming & Development : Alexandra Zaïnal
Concept & original design : Baudouin d'Aumeries
Assistance for programming : Marc-Olivier Méhu
Technical & hardware support : Manuel Goepfert

Contact : metmap@orbifly.com




SOURCES & CREDITS :

   NOAA